sensor_id;sensor_type;location;lat;lon;timestamp;pressure;altitude;pressure_sealevel;temperature;humidity
68712;BME280;55690;51.566;19.198;2023-03-14T00:01:31;99988.85;;;13.26;70.56
68712;BME280;55690;51.566;19.198;2023-03-14T00:05:38;99985.48;;;12.95;70.74
68712;BME280;55690;51.566;19.198;2023-03-14T00:09:44;99994.35;;;13.44;70.29
68712;BME280;55690;51.566;19.198;2023-03-14T00:13:51;99986.44;;;13.51;69.98
68712;BME280;55690;51.566;19.198;2023-03-14T00:17:56;99989.41;;;13.30;70.67
68712;BME280;55690;51.566;19.198;2023-03-14T00:22:02;99960.16;;;13.13;70.62
68712;BME280;55690;51.566;19.198;2023-03-14T00:26:14;99966.08;;;13.45;70.09
68712;BME280;55690;51.566;19.198;2023-03-14T00:30:17;99962.41;;;13.37;70.63
68712;BME280;55690;51.566;19.198;2023-03-14T00:34:21;99958.36;;;13.68;69.97
68712;BME280;55690;51.566;19.198;2023-03-14T00:38:27;99958.55;;;13.57;70.07
68712;BME280;55690;51.566;19.198;2023-03-14T00:42:33;99957.05;;;13.72;70.49
68712;BME280;55690;51.566;19.198;2023-03-14T00:46:39;99944.66;;;13.50;70.07
68712;BME280;55690;51.566;19.198;2023-03-14T00:50:46;99938.85;;;13.63;69.88
68712;BME280;55690;51.566;19.198;2023-03-14T00:54:52;99935.37;;;13.71;69.44
68712;BME280;55690;51.566;19.198;2023-03-14T00:58:58;99936.17;;;13.53;70.48
68712;BME280;55690;51.566;19.198;2023-03-14T01:03:04;99940.44;;;13.38;70.80
68712;BME280;55690;51.566;19.198;2023-03-14T01:07:10;99932.41;;;13.37;70.58
68712;BME280;55690;51.566;19.198;2023-03-14T01:11:26;99928.23;;;13.42;70.88
68712;BME280;55690;51.566;19.198;2023-03-14T01:15:28;99930.46;;;13.47;70.31
68712;BME280;55690;51.566;19.198;2023-03-14T01:19:30;99912.91;;;12.94;71.59
68712;BME280;55690;51.566;19.198;2023-03-14T01:23:35;99903.07;;;13.11;71.63
68712;BME280;55690;51.566;19.198;2023-03-14T01:27:41;99888.13;;;13.25;71.53
68712;BME280;55690;51.566;19.198;2023-03-14T01:31:47;99876.91;;;13.28;70.93
68712;BME280;55690;51.566;19.198;2023-03-14T01:35:53;99882.02;;;13.41;71.03
68712;BME280;55690;51.566;19.198;2023-03-14T01:40:00;99894.79;;;13.40;70.83
68712;BME280;55690;51.566;19.198;2023-03-14T01:44:10;99909.22;;;13.23;71.79
68712;BME280;55690;51.566;19.198;2023-03-14T01:48:12;99892.97;;;13.31;71.51
68712;BME280;55690;51.566;19.198;2023-03-14T01:52:25;99895.92;;;13.00;71.79
68712;BME280;55690;51.566;19.198;2023-03-14T01:56:30;99894.88;;;12.74;72.46
68712;BME280;55690;51.566;19.198;2023-03-14T02:00:33;99921.85;;;13.24;71.40
68712;BME280;55690;51.566;19.198;2023-03-14T02:04:38;99916.81;;;12.82;71.71
68712;BME280;55690;51.566;19.198;2023-03-14T02:08:43;99902.71;;;12.50;71.88
68712;BME280;55690;51.566;19.198;2023-03-14T02:12:53;99901.79;;;12.69;72.07
68712;BME280;55690;51.566;19.198;2023-03-14T02:16:56;99901.63;;;12.70;71.75
68712;BME280;55690;51.566;19.198;2023-03-14T02:21:12;99881.56;;;12.71;71.83
68712;BME280;55690;51.566;19.198;2023-03-14T02:29:31;99883.11;;;12.83;71.67
68712;BME280;55690;51.566;19.198;2023-03-14T02:33:35;99873.21;;;12.82;71.76
68712;BME280;55690;51.566;19.198;2023-03-14T02:37:43;99864.53;;;12.59;72.05
68712;BME280;55690;51.566;19.198;2023-03-14T02:41:47;99871.67;;;12.70;71.99
68712;BME280;55690;51.566;19.198;2023-03-14T02:45:52;99875.04;;;12.54;72.10
68712;BME280;55690;51.566;19.198;2023-03-14T02:50:06;99874.89;;;12.56;72.29
68712;BME280;55690;51.566;19.198;2023-03-14T02:54:02;99866.05;;;12.15;72.73
68712;BME280;55690;51.566;19.198;2023-03-14T02:58:04;99870.63;;;12.24;72.74
68712;BME280;55690;51.566;19.198;2023-03-14T03:02:05;99858.57;;;12.46;72.14
68712;BME280;55690;51.566;19.198;2023-03-14T03:06:09;99854.42;;;12.42;72.34
68712;BME280;55690;51.566;19.198;2023-03-14T03:10:16;99852.59;;;12.14;72.25
68712;BME280;55690;51.566;19.198;2023-03-14T03:14:22;99851.59;;;12.24;72.31
68712;BME280;55690;51.566;19.198;2023-03-14T03:18:28;99844.04;;;11.99;72.64
68712;BME280;55690;51.566;19.198;2023-03-14T03:22:35;99817.12;;;11.86;72.67
68712;BME280;55690;51.566;19.198;2023-03-14T03:26:40;99810.81;;;11.66;72.94
68712;BME280;55690;51.566;19.198;2023-03-14T03:30:46;99793.35;;;11.69;73.12
68712;BME280;55690;51.566;19.198;2023-03-14T03:34:53;99802.37;;;11.89;73.10
68712;BME280;55690;51.566;19.198;2023-03-14T03:38:59;99795.92;;;11.99;72.86
68712;BME280;55690;51.566;19.198;2023-03-14T03:43:05;99810.91;;;12.13;72.35
68712;BME280;55690;51.566;19.198;2023-03-14T03:47:11;99785.98;;;12.18;72.08
68712;BME280;55690;51.566;19.198;2023-03-14T03:51:17;99784.47;;;11.96;72.06
68712;BME280;55690;51.566;19.198;2023-03-14T03:55:24;99771.63;;;12.25;71.68
68712;BME280;55690;51.566;19.198;2023-03-14T03:59:30;99747.64;;;12.11;72.13
68712;BME280;55690;51.566;19.198;2023-03-14T04:03:37;99747.78;;;12.10;72.10
68712;BME280;55690;51.566;19.198;2023-03-14T04:07:42;99757.68;;;12.01;72.53
68712;BME280;55690;51.566;19.198;2023-03-14T04:11:48;99756.97;;;11.99;72.71
68712;BME280;55690;51.566;19.198;2023-03-14T04:15:55;99737.49;;;11.75;73.06
68712;BME280;55690;51.566;19.198;2023-03-14T04:20:02;99722.32;;;11.91;73.11
68712;BME280;55690;51.566;19.198;2023-03-14T04:24:08;99723.33;;;11.90;72.85
68712;BME280;55690;51.566;19.198;2023-03-14T04:28:13;99719.30;;;12.04;73.11
68712;BME280;55690;51.566;19.198;2023-03-14T04:32:19;99702.42;;;11.72;73.30
68712;BME280;55690;51.566;19.198;2023-03-14T04:36:26;99692.98;;;11.76;73.30
68712;BME280;55690;51.566;19.198;2023-03-14T04:40:32;99694.80;;;12.04;72.87
68712;BME280;55690;51.566;19.198;2023-03-14T04:44:38;99694.85;;;11.85;73.75
68712;BME280;55690;51.566;19.198;2023-03-14T04:48:44;99676.82;;;11.84;73.05
68712;BME280;55690;51.566;19.198;2023-03-14T04:52:50;99686.39;;;11.88;73.64
68712;BME280;55690;51.566;19.198;2023-03-14T04:56:56;99678.80;;;11.91;73.17
68712;BME280;55690;51.566;19.198;2023-03-14T05:01:04;99666.32;;;11.98;73.16
68712;BME280;55690;51.566;19.198;2023-03-14T05:05:09;99660.23;;;12.14;72.63
68712;BME280;55690;51.566;19.198;2023-03-14T05:09:15;99653.43;;;12.01;73.15
68712;BME280;55690;51.566;19.198;2023-03-14T05:13:21;99653.14;;;12.04;73.25
68712;BME280;55690;51.566;19.198;2023-03-14T05:17:27;99660.53;;;11.64;73.61
68712;BME280;55690;51.566;19.198;2023-03-14T05:21:34;99654.70;;;12.06;73.40
68712;BME280;55690;51.566;19.198;2023-03-14T05:25:39;99634.28;;;12.20;72.84
68712;BME280;55690;51.566;19.198;2023-03-14T05:29:47;99608.52;;;11.87;73.83
68712;BME280;55690;51.566;19.198;2023-03-14T05:33:52;99603.59;;;12.00;74.09
68712;BME280;55690;51.566;19.198;2023-03-14T05:37:58;99601.99;;;12.07;73.55
68712;BME280;55690;51.566;19.198;2023-03-14T05:42:04;99588.25;;;12.54;72.91
68712;BME280;55690;51.566;19.198;2023-03-14T05:46:10;99579.70;;;12.21;73.16
68712;BME280;55690;51.566;19.198;2023-03-14T05:50:17;99579.60;;;12.76;73.32
68712;BME280;55690;51.566;19.198;2023-03-14T05:54:23;99580.15;;;12.80;72.73
68712;BME280;55690;51.566;19.198;2023-03-14T05:58:29;99583.73;;;12.98;72.51
68712;BME280;55690;51.566;19.198;2023-03-14T06:02:35;99604.98;;;12.94;72.58
68712;BME280;55690;51.566;19.198;2023-03-14T06:06:41;99606.70;;;12.95;72.35
68712;BME280;55690;51.566;19.198;2023-03-14T06:10:47;99603.95;;;13.31;71.97
68712;BME280;55690;51.566;19.198;2023-03-14T06:14:54;99593.51;;;13.09;71.75
68712;BME280;55690;51.566;19.198;2023-03-14T06:19:00;99596.40;;;13.25;71.47
68712;BME280;55690;51.566;19.198;2023-03-14T06:23:07;99603.59;;;13.78;70.90
68712;BME280;55690;51.566;19.198;2023-03-14T06:27:12;99606.58;;;13.67;70.80
68712;BME280;55690;51.566;19.198;2023-03-14T06:31:18;99607.38;;;13.85;70.56
68712;BME280;55690;51.566;19.198;2023-03-14T06:35:25;99594.38;;;13.79;71.12
68712;BME280;55690;51.566;19.198;2023-03-14T06:39:31;99588.44;;;13.57;71.22
68712;BME280;55690;51.566;19.198;2023-03-14T06:43:37;99592.73;;;13.86;70.08
68712;BME280;55690;51.566;19.198;2023-03-14T06:47:43;99581.23;;;13.74;70.42
68712;BME280;55690;51.566;19.198;2023-03-14T06:51:49;99587.91;;;13.80;70.96
68712;BME280;55690;51.566;19.198;2023-03-14T06:55:55;99591.35;;;14.24;70.42
68712;BME280;55690;51.566;19.198;2023-03-14T07:00:03;99595.44;;;14.70;69.44
68712;BME280;55690;51.566;19.198;2023-03-14T07:04:09;99586.42;;;14.27;69.35
68712;BME280;55690;51.566;19.198;2023-03-14T07:08:14;99606.55;;;14.85;68.90
68712;BME280;55690;51.566;19.198;2023-03-14T07:12:20;99610.46;;;14.66;68.86
68712;BME280;55690;51.566;19.198;2023-03-14T07:16:26;99627.82;;;14.49;69.64
68712;BME280;55690;51.566;19.198;2023-03-14T07:20:33;99613.27;;;15.15;68.47
68712;BME280;55690;51.566;19.198;2023-03-14T07:24:39;99622.13;;;15.25;67.63
68712;BME280;55690;51.566;19.198;2023-03-14T07:28:45;99634.60;;;15.76;67.70
68712;BME280;55690;51.566;19.198;2023-03-14T07:32:51;99615.48;;;16.23;66.02
68712;BME280;55690;51.566;19.198;2023-03-14T07:36:57;99626.41;;;16.62;65.57
68712;BME280;55690;51.566;19.198;2023-03-14T07:41:05;99632.24;;;16.28;66.13
68712;BME280;55690;51.566;19.198;2023-03-14T07:45:10;99642.05;;;16.07;66.54
68712;BME280;55690;51.566;19.198;2023-03-14T07:49:16;99642.81;;;15.84;67.33
68712;BME280;55690;51.566;19.198;2023-03-14T07:53:22;99643.57;;;16.17;67.68
68712;BME280;55690;51.566;19.198;2023-03-14T07:57:28;99652.49;;;16.11;66.97
68712;BME280;55690;51.566;19.198;2023-03-14T08:01:34;99653.25;;;15.73;67.06
68712;BME280;55690;51.566;19.198;2023-03-14T08:05:40;99650.25;;;16.15;66.67
68712;BME280;55690;51.566;19.198;2023-03-14T08:09:47;99648.65;;;16.37;66.61
68712;BME280;55690;51.566;19.198;2023-03-14T08:13:52;99651.98;;;16.55;65.91
68712;BME280;55690;51.566;19.198;2023-03-14T08:17:59;99659.65;;;16.99;65.52
68712;BME280;55690;51.566;19.198;2023-03-14T08:22:05;99648.98;;;16.81;64.46
68712;BME280;55690;51.566;19.198;2023-03-14T08:26:11;99641.80;;;17.03;64.28
68712;BME280;55690;51.566;19.198;2023-03-14T08:30:19;99634.01;;;16.05;64.71
68712;BME280;55690;51.566;19.198;2023-03-14T08:34:24;99623.81;;;16.77;64.39
68712;BME280;55690;51.566;19.198;2023-03-14T08:38:29;99627.73;;;16.44;64.13
68712;BME280;55690;51.566;19.198;2023-03-14T08:42:37;99622.15;;;16.60;65.36
68712;BME280;55690;51.566;19.198;2023-03-14T08:46:42;99622.36;;;16.50;65.39
68712;BME280;55690;51.566;19.198;2023-03-14T08:50:48;99632.48;;;16.50;65.06
68712;BME280;55690;51.566;19.198;2023-03-14T08:54:54;99642.29;;;16.44;64.93
68712;BME280;55690;51.566;19.198;2023-03-14T08:59:00;99630.73;;;16.65;65.00
68712;BME280;55690;51.566;19.198;2023-03-14T09:03:06;99617.29;;;16.78;64.85
68712;BME280;55690;51.566;19.198;2023-03-14T09:07:13;99631.36;;;16.75;63.99
68712;BME280;55690;51.566;19.198;2023-03-14T09:11:19;99643.91;;;16.61;64.55
68712;BME280;55690;51.566;19.198;2023-03-14T09:15:25;99635.78;;;16.45;65.25
68712;BME280;55690;51.566;19.198;2023-03-14T09:19:31;99636.89;;;16.59;65.15
68712;BME280;55690;51.566;19.198;2023-03-14T09:23:39;99644.71;;;16.78;64.95
68712;BME280;55690;51.566;19.198;2023-03-14T09:27:43;99645.47;;;17.18;63.44
68712;BME280;55690;51.566;19.198;2023-03-14T09:31:50;99654.00;;;16.69;64.60
68712;BME280;55690;51.566;19.198;2023-03-14T09:35:58;99626.61;;;16.92;64.63
68712;BME280;55690;51.566;19.198;2023-03-14T09:40:03;99625.84;;;17.06;64.97
68712;BME280;55690;51.566;19.198;2023-03-14T09:44:21;99619.75;;;17.19;64.17
68712;BME280;55690;51.566;19.198;2023-03-14T09:48:31;99621.57;;;17.04;64.40
68712;BME280;55690;51.566;19.198;2023-03-14T09:52:37;99620.45;;;16.90;65.02
68712;BME280;55690;51.566;19.198;2023-03-14T09:56:40;99610.16;;;16.61;65.91
68712;BME280;55690;51.566;19.198;2023-03-14T10:00:42;99572.13;;;16.66;65.40
68712;BME280;55690;51.566;19.198;2023-03-14T10:04:46;99582.43;;;16.25;66.95
68712;BME280;55690;51.566;19.198;2023-03-14T10:08:48;99608.84;;;16.49;66.83
68712;BME280;55690;51.566;19.198;2023-03-14T10:12:57;99634.83;;;16.22;67.05
68712;BME280;55690;51.566;19.198;2023-03-14T10:17:07;99645.32;;;16.49;66.75
68712;BME280;55690;51.566;19.198;2023-03-14T10:21:17;99659.69;;;16.04;67.36
68712;BME280;55690;51.566;19.198;2023-03-14T10:25:29;99659.28;;;16.32;66.67
68712;BME280;55690;51.566;19.198;2023-03-14T10:37:24;99663.16;;;15.90;67.76
68712;BME280;55690;51.566;19.198;2023-03-14T10:41:31;99678.75;;;15.73;68.83
68712;BME280;55690;51.566;19.198;2023-03-14T10:45:40;99680.29;;;15.68;68.90
68712;BME280;55690;51.566;19.198;2023-03-14T10:49:44;99671.55;;;15.80;69.81
68712;BME280;55690;51.566;19.198;2023-03-14T10:53:48;99684.39;;;15.63;70.11
68712;BME280;55690;51.566;19.198;2023-03-14T10:57:50;99681.98;;;15.36;70.19
68712;BME280;55690;51.566;19.198;2023-03-14T11:06:16;99674.13;;;15.49;69.95
68712;BME280;55690;51.566;19.198;2023-03-14T11:14:43;99704.67;;;15.04;71.68
68712;BME280;55690;51.566;19.198;2023-03-14T11:31:29;99714.98;;;14.76;79.83
68712;BME280;55690;51.566;19.198;2023-03-14T11:35:44;99717.70;;;14.08;82.34
68712;BME280;55690;51.566;19.198;2023-03-14T11:44:04;99718.24;;;13.86;84.55
68712;BME280;55690;51.566;19.198;2023-03-14T11:56:45;99708.23;;;14.20;86.92
68712;BME280;55690;51.566;19.198;2023-03-14T12:00:49;99702.22;;;14.43;85.77
68712;BME280;55690;51.566;19.198;2023-03-14T12:09:06;99673.49;;;14.05;87.72
68712;BME280;55690;51.566;19.198;2023-03-14T12:13:12;99679.48;;;14.08;88.87
68712;BME280;55690;51.566;19.198;2023-03-14T12:17:21;99680.23;;;13.92;89.43
68712;BME280;55690;51.566;19.198;2023-03-14T12:21:28;99670.33;;;13.91;90.00
68712;BME280;55690;51.566;19.198;2023-03-14T12:25:32;99666.05;;;14.15;89.76
68712;BME280;55690;51.566;19.198;2023-03-14T12:29:56;99664.19;;;13.63;90.88
68712;BME280;55690;51.566;19.198;2023-03-14T12:33:45;99654.16;;;13.46;92.25
68712;BME280;55690;51.566;19.198;2023-03-14T12:37:50;99657.54;;;13.40;92.72
68712;BME280;55690;51.566;19.198;2023-03-14T12:42:04;99639.02;;;13.26;93.51
68712;BME280;55690;51.566;19.198;2023-03-14T12:50:23;99615.09;;;13.38;93.58
68712;BME280;55690;51.566;19.198;2023-03-14T12:54:40;99616.95;;;13.63;92.33
68712;BME280;55690;51.566;19.198;2023-03-14T13:03:11;99612.48;;;13.88;91.81
68712;BME280;55690;51.566;19.198;2023-03-14T13:11:20;99631.09;;;14.18;90.89
68712;BME280;55690;51.566;19.198;2023-03-14T13:15:32;99635.70;;;13.92;91.83
68712;BME280;55690;51.566;19.198;2023-03-14T13:19:35;99631.37;;;14.07;90.61
68712;BME280;55690;51.566;19.198;2023-03-14T13:23:38;99629.80;;;13.71;92.46
68712;BME280;55690;51.566;19.198;2023-03-14T13:27:42;99622.73;;;13.34;93.67
68712;BME280;55690;51.566;19.198;2023-03-14T13:31:45;99634.80;;;13.31;93.07
68712;BME280;55690;51.566;19.198;2023-03-14T13:35:53;99634.80;;;13.31;93.88
68712;BME280;55690;51.566;19.198;2023-03-14T13:39:57;99629.51;;;13.30;93.97
68712;BME280;55690;51.566;19.198;2023-03-14T13:44:03;99622.87;;;13.15;94.56
68712;BME280;55690;51.566;19.198;2023-03-14T13:48:09;99620.22;;;13.67;92.03
68712;BME280;55690;51.566;19.198;2023-03-14T13:56:28;99623.91;;;13.57;92.71
68712;BME280;55690;51.566;19.198;2023-03-14T14:00:30;99616.19;;;13.27;92.89
68712;BME280;55690;51.566;19.198;2023-03-14T14:04:33;99621.08;;;13.41;92.77
68712;BME280;55690;51.566;19.198;2023-03-14T14:08:40;99620.28;;;13.75;91.20
68712;BME280;55690;51.566;19.198;2023-03-14T14:16:53;99616.42;;;14.19;89.70
68712;BME280;55690;51.566;19.198;2023-03-14T14:20:55;99630.35;;;14.08;89.98
68712;BME280;55690;51.566;19.198;2023-03-14T14:24:57;99628.39;;;13.92;89.85
68712;BME280;55690;51.566;19.198;2023-03-14T14:29:04;99614.66;;;13.76;90.32
68712;BME280;55690;51.566;19.198;2023-03-14T14:33:17;99610.23;;;14.09;89.55
68712;BME280;55690;51.566;19.198;2023-03-14T14:37:21;99605.90;;;14.41;87.24
68712;BME280;55690;51.566;19.198;2023-03-14T14:41:27;99607.29;;;14.03;88.76
68712;BME280;55690;51.566;19.198;2023-03-14T14:45:33;99609.11;;;13.94;89.03
68712;BME280;55690;51.566;19.198;2023-03-14T14:49:35;99598.28;;;14.10;88.60
68712;BME280;55690;51.566;19.198;2023-03-14T14:53:40;99605.24;;;13.71;89.24
68712;BME280;55690;51.566;19.198;2023-03-14T15:02:00;99603.70;;;14.02;88.93
68712;BME280;55690;51.566;19.198;2023-03-14T15:06:03;99608.68;;;14.07;88.89
68712;BME280;55690;51.566;19.198;2023-03-14T15:10:06;99601.30;;;13.99;88.61
68712;BME280;55690;51.566;19.198;2023-03-14T15:14:08;99598.34;;;13.84;88.59
68712;BME280;55690;51.566;19.198;2023-03-14T15:18:17;99600.11;;;13.68;89.43
68712;BME280;55690;51.566;19.198;2023-03-14T15:22:18;99602.30;;;13.64;89.64
68712;BME280;55690;51.566;19.198;2023-03-14T15:26:23;99604.60;;;14.11;87.78
68712;BME280;55690;51.566;19.198;2023-03-14T15:30:25;99603.78;;;14.18;87.29
68712;BME280;55690;51.566;19.198;2023-03-14T15:34:27;99600.32;;;14.08;87.64
68712;BME280;55690;51.566;19.198;2023-03-14T15:38:29;99600.16;;;13.76;88.75
68712;BME280;55690;51.566;19.198;2023-03-14T15:42:31;99600.84;;;13.52;88.81
68712;BME280;55690;51.566;19.198;2023-03-14T15:46:33;99597.12;;;13.79;88.56
68712;BME280;55690;51.566;19.198;2023-03-14T15:50:34;99584.88;;;13.91;88.50
68712;BME280;55690;51.566;19.198;2023-03-14T15:54:36;99574.44;;;14.20;87.07
68712;BME280;55690;51.566;19.198;2023-03-14T15:58:38;99582.19;;;13.99;87.89
68712;BME280;55690;51.566;19.198;2023-03-14T16:02:41;99584.30;;;14.13;87.40
68712;BME280;55690;51.566;19.198;2023-03-14T16:06:44;99582.80;;;14.19;86.94
68712;BME280;55690;51.566;19.198;2023-03-14T16:10:46;99594.24;;;13.88;87.70
68712;BME280;55690;51.566;19.198;2023-03-14T16:14:48;99594.98;;;13.64;88.23
68712;BME280;55690;51.566;19.198;2023-03-14T16:18:49;99599.26;;;14.01;86.48
68712;BME280;55690;51.566;19.198;2023-03-14T16:22:50;99606.71;;;13.91;86.83
68712;BME280;55690;51.566;19.198;2023-03-14T16:26:52;99613.13;;;13.12;89.10
68712;BME280;55690;51.566;19.198;2023-03-14T16:35:06;99612.55;;;13.44;88.20
68712;BME280;55690;51.566;19.198;2023-03-14T16:39:08;99618.60;;;13.56;87.68
68712;BME280;55690;51.566;19.198;2023-03-14T16:43:10;99609.98;;;12.99;89.68
68712;BME280;55690;51.566;19.198;2023-03-14T16:47:11;99626.84;;;13.03;88.70
68712;BME280;55690;51.566;19.198;2023-03-14T16:51:13;99633.58;;;13.52;87.78
68712;BME280;55690;51.566;19.198;2023-03-14T16:55:16;99624.08;;;13.82;86.27
68712;BME280;55690;51.566;19.198;2023-03-14T16:59:18;99625.87;;;13.47;86.71
68712;BME280;55690;51.566;19.198;2023-03-14T17:03:20;99631.99;;;13.41;87.79
68712;BME280;55690;51.566;19.198;2023-03-14T17:07:21;99627.61;;;13.13;89.04
68712;BME280;55690;51.566;19.198;2023-03-14T17:11:23;99634.14;;;12.49;90.65
68712;BME280;55690;51.566;19.198;2023-03-14T17:15:25;99635.24;;;12.56;91.63
68712;BME280;55690;51.566;19.198;2023-03-14T17:19:26;99646.35;;;12.62;90.99
68712;BME280;55690;51.566;19.198;2023-03-14T17:23:29;99646.78;;;12.85;90.46
68712;BME280;55690;51.566;19.198;2023-03-14T17:27:34;99645.28;;;12.55;90.43
68712;BME280;55690;51.566;19.198;2023-03-14T17:31:40;99643.32;;;12.48;91.35
68712;BME280;55690;51.566;19.198;2023-03-14T17:35:46;99652.13;;;12.77;90.40
68712;BME280;55690;51.566;19.198;2023-03-14T17:39:53;99656.77;;;12.49;91.01
68712;BME280;55690;51.566;19.198;2023-03-14T17:43:59;99648.65;;;12.85;90.04
68712;BME280;55690;51.566;19.198;2023-03-14T17:48:05;99651.13;;;12.33;91.94
68712;BME280;55690;51.566;19.198;2023-03-14T17:52:11;99654.36;;;12.46;92.30
68712;BME280;55690;51.566;19.198;2023-03-14T17:56:17;99650.57;;;12.29;92.49
68712;BME280;55690;51.566;19.198;2023-03-14T18:00:23;99648.77;;;12.65;91.64
68712;BME280;55690;51.566;19.198;2023-03-14T18:04:29;99651.53;;;12.83;90.45
68712;BME280;55690;51.566;19.198;2023-03-14T18:08:37;99661.35;;;12.94;89.75
68712;BME280;55690;51.566;19.198;2023-03-14T18:12:43;99665.82;;;12.68;90.85
68712;BME280;55690;51.566;19.198;2023-03-14T18:16:48;99679.42;;;12.50;91.75
68712;BME280;55690;51.566;19.198;2023-03-14T18:20:55;99680.73;;;12.46;91.47
68712;BME280;55690;51.566;19.198;2023-03-14T18:25:01;99683.08;;;12.31;92.77
68712;BME280;55690;51.566;19.198;2023-03-14T18:29:06;99692.10;;;12.31;92.63
68712;BME280;55690;51.566;19.198;2023-03-14T18:33:13;99700.52;;;12.11;93.47
68712;BME280;55690;51.566;19.198;2023-03-14T18:37:19;99699.56;;;12.57;91.99
68712;BME280;55690;51.566;19.198;2023-03-14T18:41:25;99699.56;;;11.92;93.71
68712;BME280;55690;51.566;19.198;2023-03-14T18:45:31;99708.88;;;11.90;95.27
68712;BME280;55690;51.566;19.198;2023-03-14T18:49:37;99698.87;;;11.81;94.53
68712;BME280;55690;51.566;19.198;2023-03-14T18:53:44;99699.76;;;11.62;95.59
68712;BME280;55690;51.566;19.198;2023-03-14T18:57:50;99691.27;;;11.84;95.46
68712;BME280;55690;51.566;19.198;2023-03-14T19:01:56;99695.74;;;11.66;95.85
68712;BME280;55690;51.566;19.198;2023-03-14T19:06:05;99704.48;;;12.16;94.01
68712;BME280;55690;51.566;19.198;2023-03-14T19:10:09;99706.88;;;12.29;93.21
68712;BME280;55690;51.566;19.198;2023-03-14T19:14:14;99710.40;;;12.12;93.83
68712;BME280;55690;51.566;19.198;2023-03-14T19:18:21;99706.90;;;12.19;93.38
68712;BME280;55690;51.566;19.198;2023-03-14T19:22:27;99715.37;;;12.16;93.38
68712;BME280;55690;51.566;19.198;2023-03-14T19:26:34;99720.56;;;12.10;94.05
68712;BME280;55690;51.566;19.198;2023-03-14T19:30:39;99708.58;;;11.93;93.73
68712;BME280;55690;51.566;19.198;2023-03-14T19:34:45;99718.47;;;11.84;94.74
68712;BME280;55690;51.566;19.198;2023-03-14T19:38:52;99722.63;;;11.79;94.74
68712;BME280;55690;51.566;19.198;2023-03-14T19:42:58;99722.02;;;12.04;93.81
68712;BME280;55690;51.566;19.198;2023-03-14T19:47:04;99717.61;;;12.30;92.76
68712;BME280;55690;51.566;19.198;2023-03-14T19:51:14;99717.45;;;11.95;93.40
68712;BME280;55690;51.566;19.198;2023-03-14T19:55:16;99714.05;;;11.83;94.39
68712;BME280;55690;51.566;19.198;2023-03-14T19:59:22;99708.41;;;12.04;93.11
68712;BME280;55690;51.566;19.198;2023-03-14T20:03:29;99704.24;;;12.10;92.53
68712;BME280;55690;51.566;19.198;2023-03-14T20:07:35;99708.03;;;12.26;92.15
68712;BME280;55690;51.566;19.198;2023-03-14T20:11:41;99719.80;;;12.17;92.89
68712;BME280;55690;51.566;19.198;2023-03-14T20:15:47;99717.72;;;12.39;92.30
68712;BME280;55690;51.566;19.198;2023-03-14T20:19:53;99722.63;;;11.79;93.93
68712;BME280;55690;51.566;19.198;2023-03-14T20:24:00;99718.62;;;11.83;93.80
68712;BME280;55690;51.566;19.198;2023-03-14T20:28:06;99726.47;;;11.76;93.71
68712;BME280;55690;51.566;19.198;2023-03-14T20:32:12;99726.92;;;11.81;93.71
68712;BME280;55690;51.566;19.198;2023-03-14T20:36:18;99731.90;;;12.05;92.58
68712;BME280;55690;51.566;19.198;2023-03-14T20:40:24;99730.33;;;12.03;92.15
68712;BME280;55690;51.566;19.198;2023-03-14T20:44:30;99738.49;;;12.03;92.71
68712;BME280;55690;51.566;19.198;2023-03-14T20:48:36;99732.49;;;12.36;90.86
68712;BME280;55690;51.566;19.198;2023-03-14T20:52:43;99736.67;;;12.30;91.17
68712;BME280;55690;51.566;19.198;2023-03-14T20:56:49;99742.95;;;12.41;91.05
68712;BME280;55690;51.566;19.198;2023-03-14T21:00:56;99740.41;;;12.57;90.90
68712;BME280;55690;51.566;19.198;2023-03-14T21:05:02;99738.35;;;12.69;90.14
68712;BME280;55690;51.566;19.198;2023-03-14T21:09:08;99745.96;;;12.38;90.22
68712;BME280;55690;51.566;19.198;2023-03-14T21:13:13;99745.21;;;12.73;90.02
68712;BME280;55690;51.566;19.198;2023-03-14T21:17:20;99753.56;;;12.34;90.78
68712;BME280;55690;51.566;19.198;2023-03-14T21:21:26;99741.45;;;12.56;90.47
68712;BME280;55690;51.566;19.198;2023-03-14T21:25:33;99739.05;;;12.71;89.68
68712;BME280;55690;51.566;19.198;2023-03-14T21:29:38;99745.12;;;12.92;88.72
68712;BME280;55690;51.566;19.198;2023-03-14T21:33:45;99743.95;;;12.67;88.97
68712;BME280;55690;51.566;19.198;2023-03-14T21:37:51;99751.58;;;12.91;88.82
68712;BME280;55690;51.566;19.198;2023-03-14T21:41:57;99754.09;;;12.75;89.09
68712;BME280;55690;51.566;19.198;2023-03-14T21:46:03;99769.28;;;12.50;89.56
68712;BME280;55690;51.566;19.198;2023-03-14T21:50:10;99765.89;;;12.65;88.99
68712;BME280;55690;51.566;19.198;2023-03-14T21:54:15;99776.52;;;12.59;88.78
68712;BME280;55690;51.566;19.198;2023-03-14T21:58:21;99789.95;;;12.70;88.11
68712;BME280;55690;51.566;19.198;2023-03-14T22:02:28;99821.22;;;12.66;90.37
68712;BME280;55690;51.566;19.198;2023-03-14T22:06:34;99832.93;;;12.39;92.21
68712;BME280;55690;51.566;19.198;2023-03-14T22:10:47;99844.96;;;12.83;90.03
68712;BME280;55690;51.566;19.198;2023-03-14T22:14:49;99848.70;;;12.82;89.70
68712;BME280;55690;51.566;19.198;2023-03-14T22:18:52;99877.25;;;12.03;91.28
68712;BME280;55690;51.566;19.198;2023-03-14T22:22:58;99889.19;;;11.42;89.41
68712;BME280;55690;51.566;19.198;2023-03-14T22:27:05;99912.62;;;11.24;88.53
68712;BME280;55690;51.566;19.198;2023-03-14T22:31:11;99951.95;;;10.69;87.80
68712;BME280;55690;51.566;19.198;2023-03-14T22:35:17;99964.05;;;10.44;88.22
68712;BME280;55690;51.566;19.198;2023-03-14T22:39:23;99982.88;;;10.36;88.63
68712;BME280;55690;51.566;19.198;2023-03-14T22:43:30;100004.12;;;9.76;90.21